TAF KMTH
KMTH 081721Z 0818/0918 06005KT P6SM FEW030 SCT060 TEMPO 0819/0822 13005KT FEW030 SCT060=
METAR KMTH
WC KMTH
WS KMTH
WV KMTH